Карточка аэропорта UHMM

Внимание!
Информация на этой странице в стадии наполнения.
Если вы не увидели какой-то информации, или заметили неточность - пожалуйста сообщите нам!
Спасибо!
Команда RU-STAFF
Название аэропортаСокол
Название аэропорта (англ.)Sokol
Превышение574 ft. (175 m.)
Координаты59°54.648', 150°43.2'
Высота перехода2500m
Эшелон переходаQFE>=744mm: FL100; 744mm>QFE>=717mm: FL110; QFE<717mm: FL120
Коды ответчика6540-6577
Зона ОрВДМагадан РПИ (UHMM)
Данные METARUHMM 010530Z 07002MPS 2800 -SHSN SCT020CB M09/M10 Q0990 R10/490531 TEMPO 0500 +SHSN RMK MT OBSC QFE728 R28/00000MPS
Проноз погоды (TAF)UHMM 010435Z 0106/0212 15003G09MPS 1800 SHSN BKN007 OVC020CB TEMPO 0106/0110 0700 +SHSN VV006 TEMPO 0110/0123 0300 +SHSN VV005
NOTAMshow/hide NOTAM
AWOS   TABLE

Информация о ВПП


Диспетчерские позиции

Позывной Наименование органа УВД Частота
UHMM_TWRМагадан-Вышка120.8
UHMM_APPМагадан-Подход119.3



Спутниковое изображение